Terminal Aerodrome Forecast
Issued by NWS Caribou, ME

Home | Current Version | Previous Version | Text Only | Print | Product List | Glossary On
Versions: 1 2 3 4 5 6 7 8 9 10 11 12 13 14 15
000
FTUS41 KCAR 241734
TAFCAR
TAF
KCAR 241734Z 2418/2518 VRB03KT P6SM BKN040 OVC080
     FM250000 36007KT 6SM -RAPL OVC030
     FM250200 01007KT 3SM -FZRAPL OVC020
     FM250600 05007KT 3SM -FZRAPL OVC012
     FM251000 08005KT 5SM BR OVC008
     FM251500 12006KT 1SM -DZ BR OVC005=

USA.gov is the U.S. government's official web portal to all federal, state and local government web resources and services.